Taunsa Weather



Taunsa's Current Weather

Temprature 23.91o broken clouds

broken clouds

Rain: 0 %

Min Temprature23.91o
Max Temprature23.91o
Humidity35
Wind Speed1.1 m/h
Sun Rise05:56:26
Sun Set18:40:59
Current Time: 09-Apr-2020 02:31:55
Lat/Lon: 30.7, 70.65




Taunsa's Geo Location



Taunsa's Weather Forecast

Time Overall Temp Min Temp Max Temp Humidity Wind Speed Rain
09-Apr-2020 (Thu)
05:00:00 broken clouds 22.430 22.430 22.430 37 0.62 m/h 0 %
08:00:00 overcast clouds 25.570 25.570 25.570 28 0.89 m/h 0 %
11:00:00 overcast clouds 29.680 29.680 29.680 21 2.91 m/h 0 %
14:00:00 overcast clouds 33.460 33.460 33.460 17 5.6 m/h 0 %
17:00:00 light rain 32.790 32.790 32.790 19 1.44 m/h 74 %
20:00:00 light rain 29.250 29.250 29.250 26 2.88 m/h 28 %
23:00:00 scattered clouds 27.660 27.660 27.660 28 1.57 m/h 0 %
10-Apr-2020 (Fri)
02:00:00 clear sky 24.850 24.850 24.850 36 5.05 m/h 0 %
05:00:00 clear sky 21.890 21.890 21.890 50 6.22 m/h 0 %
08:00:00 clear sky 23.720 23.720 23.720 46 5.79 m/h 0 %
11:00:00 clear sky 29.060 29.060 29.060 31 6.22 m/h 0 %
14:00:00 clear sky 32.030 32.030 32.030 24 5.48 m/h 0 %
17:00:00 few clouds 32.130 32.130 32.130 23 4.81 m/h 0 %
20:00:00 clear sky 28.920 28.920 28.920 30 2.55 m/h 0 %
23:00:00 few clouds 27.470 27.470 27.470 33 2.43 m/h 0 %
11-Apr-2020 (Sat)
02:00:00 overcast clouds 26.180 26.180 26.180 36 2.71 m/h 0 %
05:00:00 broken clouds 24.940 24.940 24.940 39 2.18 m/h 0 %
08:00:00 scattered clouds 28.140 28.140 28.140 31 1.5 m/h 0 %
11:00:00 few clouds 32.320 32.320 32.320 23 1.22 m/h 0 %
14:00:00 broken clouds 35.290 35.290 35.290 19 2.65 m/h 0 %
17:00:00 broken clouds 35.310 35.310 35.310 18 2.29 m/h 0 %
20:00:00 overcast clouds 31.640 31.640 31.640 26 1.15 m/h 0 %
23:00:00 overcast clouds 29.810 29.810 29.810 27 0.54 m/h 0 %
12-Apr-2020 (Sun)
02:00:00 overcast clouds 28.250 28.250 28.250 28 1.18 m/h 0 %
05:00:00 overcast clouds 26.610 26.610 26.610 32 1.69 m/h 0 %
08:00:00 broken clouds 29.810 29.810 29.810 25 0.98 m/h 0 %
11:00:00 scattered clouds 34.510 34.510 34.510 18 1.31 m/h 0 %
14:00:00 clear sky 37.080 37.080 37.080 15 2.11 m/h 0 %
17:00:00 clear sky 38.130 38.130 38.130 13 3.24 m/h 0 %
20:00:00 light rain 33.630 33.630 33.630 20 2.24 m/h 42 %
23:00:00 light rain 31.120 31.120 31.120 27 0.99 m/h 48 %
13-Apr-2020 (Mon)
02:00:00 overcast clouds 29.900 29.900 29.900 30 0.14 m/h 0 %
05:00:00 light rain 28.740 28.740 28.740 30 1.05 m/h 17 %
08:00:00 light rain 31.570 31.570 31.570 24 0.8 m/h 54 %
11:00:00 scattered clouds 37.050 37.050 37.050 15 1.28 m/h 0 %
14:00:00 clear sky 40.230 40.230 40.230 10 1.43 m/h 0 %
17:00:00 few clouds 40.520 40.520 40.520 9 3.7 m/h 0 %
20:00:00 scattered clouds 35.810 35.810 35.810 14 3.07 m/h 0 %
23:00:00 scattered clouds 33.430 33.430 33.430 16 2.44 m/h 0 %
14-Apr-2020 (Tue)
02:00:00 few clouds 31.190 31.190 31.190 17 2.72 m/h 0 %

Famous Cities (61)